»·PEaware :: N703TE L88-L52

N703TE :: L88-L52

FLIGHT INFORMATION

Flight Status: Arrived
Operator: Privately registered:
United States
More flights under this callsign
Pilot: Daniel S. (25371)
Aircraft: CESSNA 172 SKYHAWK
(C172)
More flights by this aircraft type
Origin: L88 New Cuyama
United States
Destination: L52 Oceano Co
United States
More flights between these airports :: More routes between these airports
Route:
File this flight plan on PilotEdge
Remarks:
Altitude:
(Current/Filed)
6,500ft
Speed:
(Current/Filed)
140kts
Departed: 10-Jul-19 03:46 PM
Arrived: 10-Jul-19 04:19 PM
Distance/Time
Traveled:
47nm/0:33
Distance/Time
To Go:
Arrived

Flight Plot

Page will automatically refresh every two minutes.


Map Options




Map Legend


Flown Route
Filed Route
Departure Airport
Arrival Airport
Navaid (VOR, NDB)
Fix

Horizontal Profiles

Position Reports

Time Latitude Longitude Heading Altitude Ground
Speed
10-Jul-19 15:42 34.943339 -119.690821 192 2154ft 0kts
10-Jul-19 15:43 34.940472 -119.686817 116 2171ft 36kts
10-Jul-19 15:44 34.937506 -119.680207 152 2200ft 0kts
10-Jul-19 15:45 34.941468 -119.689176 117 2161ft 53kts
10-Jul-19 15:46 34.949582 -119.669958 20 3036ft 78kts
10-Jul-19 15:47 34.970740 -119.663864 1 3957ft 83kts
10-Jul-19 15:48 34.974320 -119.685563 251 4856ft 82kts
10-Jul-19 15:49 34.970990 -119.712747 268 5713ft 81kts
10-Jul-19 15:50 34.972890 -119.740537 280 6501ft 83kts
10-Jul-19 15:51 34.978984 -119.778454 280 6473ft 127kts
10-Jul-19 15:52 34.985560 -119.821437 280 6471ft 130kts
10-Jul-19 15:53 34.992187 -119.865766 280 6471ft 134kts
10-Jul-19 15:54 34.998864 -119.910619 280 6471ft 133kts
10-Jul-19 15:55 35.005125 -119.952500 280 6471ft 122kts
10-Jul-19 15:56 35.011137 -119.993047 280 6471ft 121kts
10-Jul-19 15:57 35.017083 -120.033423 279 6471ft 121kts
10-Jul-19 15:58 35.022838 -120.074013 279 6471ft 121kts
10-Jul-19 15:59 35.028752 -120.114553 280 6471ft 121kts
10-Jul-19 16:00 35.034666 -120.154978 280 6471ft 121kts
10-Jul-19 16:01 35.040582 -120.195508 280 6471ft 121kts
10-Jul-19 16:02 35.046472 -120.235950 280 6471ft 121kts
10-Jul-19 16:03 35.052364 -120.276510 280 6471ft 121kts
10-Jul-19 16:04 35.058228 -120.316978 280 6471ft 121kts
10-Jul-19 16:05 35.064095 -120.357563 280 6471ft 121kts
10-Jul-19 16:06 35.068880 -120.388650 279 6156ft 77kts
10-Jul-19 16:07 35.072546 -120.416646 281 5448ft 101kts
10-Jul-19 16:08 35.077548 -120.448952 278 5050ft 97kts
10-Jul-19 16:09 35.081932 -120.481119 280 4352ft 94kts
10-Jul-19 16:10 35.086503 -120.513088 280 3540ft 93kts
10-Jul-19 16:11 35.091022 -120.544570 280 2656ft 93kts
10-Jul-19 16:12 35.102647 -120.570957 307 1899ft 81kts
10-Jul-19 16:13 35.114075 -120.593779 253 1282ft 87kts
10-Jul-19 16:14 35.104184 -120.619919 225 831ft 72kts
10-Jul-19 16:15 35.085673 -120.620295 168 686ft 75kts
10-Jul-19 16:16 35.078616 -120.604586 339 586ft 84kts
10-Jul-19 16:17 35.097899 -120.616674 315 276ft 68kts
10-Jul-19 16:18 35.102801 -120.623444 177 16ft 1kts
10-Jul-19 16:19 35.101358 -120.622495 211 15ft 9kts
10-Jul-19 16:20 35.100069 -120.620459 123 17ft 6kts
10-Jul-19 16:21 35.099758 -120.619877 121 17ft 0kts
10-Jul-19 16:22 35.099561 -120.619436 79 17ft 6kts
10-Jul-19 16:23 35.099998 -120.619470 310 17ft 12kts
10-Jul-19 16:24 35.109320 -120.638859 270 716ft 81kts
10-Jul-19 16:25 35.095259 -120.634346 124 1238ft 92kts
10-Jul-19 16:26 35.084993 -120.613786 116 1162ft 61kts
10-Jul-19 16:27 35.095023 -120.609165 293 771ft 57kts
10-Jul-19 16:28 35.102632 -120.624383 301 40ft 48kts
10-Jul-19 16:29 35.104325 -120.639895 196 825ft 61kts
10-Jul-19 16:30 35.089229 -120.627398 141 1187ft 72kts
10-Jul-19 16:31 35.075782 -120.607128 55 855ft 68kts
10-Jul-19 16:32 35.091473 -120.609246 334 518ft 64kts
10-Jul-19 16:33 35.100995 -120.621322 300 17ft 42kts

Navigation Log

Ident Type
Flight plan parsing failed, navigation log unavailable